sensor_id;sensor_type;location;lat;lon;timestamp;pressure;altitude;pressure_sealevel;temperature;humidity
41686;BME280;27370;42.764;23.432;2023-02-17T00:01:59;96528.63;;;-4.17;100.00
41686;BME280;27370;42.764;23.432;2023-02-17T00:04:27;96519.53;;;-4.11;100.00
41686;BME280;27370;42.764;23.432;2023-02-17T00:06:54;96507.81;;;-4.05;100.00
41686;BME280;27370;42.764;23.432;2023-02-17T00:09:19;96520.56;;;-3.93;100.00
41686;BME280;27370;42.764;23.432;2023-02-17T00:11:45;96513.13;;;-3.91;100.00
41686;BME280;27370;42.764;23.432;2023-02-17T00:14:11;96509.09;;;-4.03;100.00
41686;BME280;27370;42.764;23.432;2023-02-17T00:16:38;96520.56;;;-3.93;100.00
41686;BME280;27370;42.764;23.432;2023-02-17T00:19:03;96520.28;;;-3.92;100.00
41686;BME280;27370;42.764;23.432;2023-02-17T00:21:56;96514.34;;;-4.16;100.00
41686;BME280;27370;42.764;23.432;2023-02-17T00:24:23;96520.47;;;-3.88;100.00
41686;BME280;27370;42.764;23.432;2023-02-17T00:26:49;96502.72;;;-4.02;100.00
41686;BME280;27370;42.764;23.432;2023-02-17T00:29:15;96497.38;;;-3.83;100.00
41686;BME280;27370;42.764;23.432;2023-02-17T00:31:41;96499.03;;;-3.87;100.00
41686;BME280;27370;42.764;23.432;2023-02-17T00:34:06;96504.75;;;-3.80;100.00
41686;BME280;27370;42.764;23.432;2023-02-17T00:36:32;96499.34;;;-4.21;100.00
41686;BME280;27370;42.764;23.432;2023-02-17T00:38:58;96504.75;;;-4.12;100.00
41686;BME280;27370;42.764;23.432;2023-02-17T00:41:27;96506.66;;;-3.99;100.00
41686;BME280;27370;42.764;23.432;2023-02-17T00:43:56;96484.34;;;-4.25;100.00
41686;BME280;27370;42.764;23.432;2023-02-17T00:46:22;96497.81;;;-4.08;100.00
41686;BME280;27370;42.764;23.432;2023-02-17T00:48:50;96499.91;;;-4.05;100.00
41686;BME280;27370;42.764;23.432;2023-02-17T00:51:17;96489.31;;;-4.05;100.00
41686;BME280;27370;42.764;23.432;2023-02-17T00:53:43;96493.91;;;-3.97;100.00
41686;BME280;27370;42.764;23.432;2023-02-17T00:56:09;96493.69;;;-4.14;100.00
41686;BME280;27370;42.764;23.432;2023-02-17T00:58:36;96498.97;;;-4.14;100.00
41686;BME280;27370;42.764;23.432;2023-02-17T01:01:02;96494.47;;;-4.14;100.00
41686;BME280;27370;42.764;23.432;2023-02-17T01:03:28;96494.97;;;-4.12;100.00
41686;BME280;27370;42.764;23.432;2023-02-17T01:05:54;96493.28;;;-4.08;100.00
41686;BME280;27370;42.764;23.432;2023-02-17T01:08:21;96494.25;;;-4.17;100.00
41686;BME280;27370;42.764;23.432;2023-02-17T01:10:50;96489.31;;;-4.38;100.00
41686;BME280;27370;42.764;23.432;2023-02-17T01:13:17;96496.75;;;-4.40;100.00
41686;BME280;27370;42.764;23.432;2023-02-17T01:15:49;96482.06;;;-4.32;100.00
41686;BME280;27370;42.764;23.432;2023-02-17T01:18:15;96475.66;;;-4.26;100.00
41686;BME280;27370;42.764;23.432;2023-02-17T01:20:42;96473.44;;;-4.38;100.00
41686;BME280;27370;42.764;23.432;2023-02-17T01:23:08;96466.25;;;-4.51;100.00
41686;BME280;27370;42.764;23.432;2023-02-17T01:25:39;96486.03;;;-4.48;100.00
41686;BME280;27370;42.764;23.432;2023-02-17T01:28:05;96481.06;;;-4.50;100.00
41686;BME280;27370;42.764;23.432;2023-02-17T01:30:31;96462.47;;;-4.45;100.00
41686;BME280;27370;42.764;23.432;2023-02-17T01:32:57;96474.13;;;-4.32;100.00
41686;BME280;27370;42.764;23.432;2023-02-17T01:35:22;96462.28;;;-4.35;100.00
41686;BME280;27370;42.764;23.432;2023-02-17T01:37:48;96466.59;;;-4.39;100.00
41686;BME280;27370;42.764;23.432;2023-02-17T01:40:15;96471.50;;;-4.32;100.00
41686;BME280;27370;42.764;23.432;2023-02-17T01:42:41;96474.91;;;-4.32;100.00
41686;BME280;27370;42.764;23.432;2023-02-17T01:50:24;96474.09;;;-4.46;100.00
41686;BME280;27370;42.764;23.432;2023-02-17T01:52:51;96478.47;;;-4.55;100.00
41686;BME280;27370;42.764;23.432;2023-02-17T01:55:19;96473.22;;;-4.93;100.00
41686;BME280;27370;42.764;23.432;2023-02-17T01:57:48;96483.78;;;-4.74;100.00
41686;BME280;27370;42.764;23.432;2023-02-17T02:00:17;96483.31;;;-4.43;100.00
41686;BME280;27370;42.764;23.432;2023-02-17T02:02:45;96473.97;;;-4.54;100.00
41686;BME280;27370;42.764;23.432;2023-02-17T02:05:13;96468.19;;;-4.56;100.00
41686;BME280;27370;42.764;23.432;2023-02-17T02:07:41;96466.41;;;-4.61;100.00
41686;BME280;27370;42.764;23.432;2023-02-17T02:10:12;96455.44;;;-4.87;100.00
41686;BME280;27370;42.764;23.432;2023-02-17T02:12:39;96466.28;;;-4.88;100.00
41686;BME280;27370;42.764;23.432;2023-02-17T02:15:07;96465.88;;;-4.96;100.00
41686;BME280;27370;42.764;23.432;2023-02-17T02:32:41;96465.53;;;-4.56;100.00
41686;BME280;27370;42.764;23.432;2023-02-17T02:38:12;96463.50;;;-4.27;100.00
41686;BME280;27370;42.764;23.432;2023-02-17T02:40:49;96477.25;;;-4.44;100.00
41686;BME280;27370;42.764;23.432;2023-02-17T02:43:17;96471.88;;;-4.39;100.00
41686;BME280;27370;42.764;23.432;2023-02-17T02:45:43;96464.56;;;-4.28;100.00
41686;BME280;27370;42.764;23.432;2023-02-17T02:48:08;96452.28;;;-4.38;100.00
41686;BME280;27370;42.764;23.432;2023-02-17T02:53:22;96462.75;;;-4.46;100.00
41686;BME280;27370;42.764;23.432;2023-02-17T02:58:35;96466.75;;;-4.49;100.00
41686;BME280;27370;42.764;23.432;2023-02-17T03:01:14;96478.41;;;-4.50;100.00
41686;BME280;27370;42.764;23.432;2023-02-17T03:03:51;96471.97;;;-4.44;100.00
41686;BME280;27370;42.764;23.432;2023-02-17T03:09:06;96475.09;;;-4.42;100.00
41686;BME280;27370;42.764;23.432;2023-02-17T03:11:34;96479.03;;;-4.39;100.00
41686;BME280;27370;42.764;23.432;2023-02-17T03:14:05;96471.88;;;-4.39;100.00
41686;BME280;27370;42.764;23.432;2023-02-17T03:16:32;96472.06;;;-4.35;100.00
41686;BME280;27370;42.764;23.432;2023-02-17T03:18:58;96472.66;;;-4.38;100.00
41686;BME280;27370;42.764;23.432;2023-02-17T03:21:29;96481.94;;;-4.41;100.00
41686;BME280;27370;42.764;23.432;2023-02-17T03:23:57;96470.38;;;-4.45;100.00
41686;BME280;27370;42.764;23.432;2023-02-17T03:26:22;96480.75;;;-4.48;100.00
41686;BME280;27370;42.764;23.432;2023-02-17T03:28:48;96484.53;;;-4.54;100.00
41686;BME280;27370;42.764;23.432;2023-02-17T03:31:13;96480.25;;;-4.50;100.00
41686;BME280;27370;42.764;23.432;2023-02-17T03:33:39;96484.03;;;-4.56;100.00
41686;BME280;27370;42.764;23.432;2023-02-17T03:36:05;96463.81;;;-4.47;100.00
41686;BME280;27370;42.764;23.432;2023-02-17T03:38:30;96464.53;;;-4.60;100.00
41686;BME280;27370;42.764;23.432;2023-02-17T03:40:56;96477.03;;;-4.47;100.00
41686;BME280;27370;42.764;23.432;2023-02-17T03:43:21;96475.63;;;-4.58;100.00
41686;BME280;27370;42.764;23.432;2023-02-17T03:45:47;96473.25;;;-4.60;100.00
41686;BME280;27370;42.764;23.432;2023-02-17T03:48:12;96476.69;;;-4.59;100.00
41686;BME280;27370;42.764;23.432;2023-02-17T03:50:38;96462.78;;;-4.65;100.00
41686;BME280;27370;42.764;23.432;2023-02-17T03:53:03;96453.66;;;-4.40;100.00
41686;BME280;27370;42.764;23.432;2023-02-17T03:55:29;96458.94;;;-4.40;100.00
41686;BME280;27370;42.764;23.432;2023-02-17T03:57:55;96455.31;;;-4.44;100.00
41686;BME280;27370;42.764;23.432;2023-02-17T04:00:20;96454.06;;;-4.33;100.00
41686;BME280;27370;42.764;23.432;2023-02-17T04:02:49;96453.41;;;-4.25;100.00
41686;BME280;27370;42.764;23.432;2023-02-17T04:05:15;96459.88;;;-4.17;100.00
41686;BME280;27370;42.764;23.432;2023-02-17T04:07:40;96463.94;;;-4.06;100.00
41686;BME280;27370;42.764;23.432;2023-02-17T04:10:06;96459.34;;;-4.01;100.00
41686;BME280;27370;42.764;23.432;2023-02-17T04:12:32;96440.91;;;-3.92;100.00
41686;BME280;27370;42.764;23.432;2023-02-17T04:14:57;96449.53;;;-3.86;100.00
41686;BME280;27370;42.764;23.432;2023-02-17T04:17:23;96448.75;;;-3.87;100.00
41686;BME280;27370;42.764;23.432;2023-02-17T04:19:48;96453.63;;;-4.08;100.00
41686;BME280;27370;42.764;23.432;2023-02-17T04:22:14;96458.06;;;-4.03;100.00
41686;BME280;27370;42.764;23.432;2023-02-17T04:24:39;96456.00;;;-4.06;100.00
41686;BME280;27370;42.764;23.432;2023-02-17T04:27:05;96466.41;;;-3.96;100.00
41686;BME280;27370;42.764;23.432;2023-02-17T04:29:32;96474.38;;;-3.55;100.00
41686;BME280;27370;42.764;23.432;2023-02-17T04:31:57;96478.97;;;-3.47;100.00
41686;BME280;27370;42.764;23.432;2023-02-17T04:34:23;96473.47;;;-3.50;100.00
41686;BME280;27370;42.764;23.432;2023-02-17T04:36:48;96475.44;;;-3.70;100.00
41686;BME280;27370;42.764;23.432;2023-02-17T04:39:14;96459.38;;;-3.73;100.00
41686;BME280;27370;42.764;23.432;2023-02-17T04:41:39;96455.53;;;-3.67;100.00
41686;BME280;27370;42.764;23.432;2023-02-17T04:44:05;96462.00;;;-3.73;100.00
41686;BME280;27370;42.764;23.432;2023-02-17T04:46:31;96476.09;;;-3.23;100.00
41686;BME280;27370;42.764;23.432;2023-02-17T04:48:56;96466.31;;;-3.50;100.00
41686;BME280;27370;42.764;23.432;2023-02-17T04:51:22;96460.63;;;-3.43;100.00
41686;BME280;27370;42.764;23.432;2023-02-17T04:53:48;96453.75;;;-3.44;100.00
41686;BME280;27370;42.764;23.432;2023-02-17T04:56:13;96483.56;;;-3.11;100.00
41686;BME280;27370;42.764;23.432;2023-02-17T04:58:39;96465.72;;;-3.47;100.00
41686;BME280;27370;42.764;23.432;2023-02-17T05:01:04;96461.31;;;-3.65;100.00
41686;BME280;27370;42.764;23.432;2023-02-17T05:03:30;96469.66;;;-3.58;100.00
41686;BME280;27370;42.764;23.432;2023-02-17T05:05:55;96476.13;;;-3.36;100.00
41686;BME280;27370;42.764;23.432;2023-02-17T05:08:21;96472.22;;;-3.39;100.00
41686;BME280;27370;42.764;23.432;2023-02-17T05:10:46;96475.91;;;-3.40;100.00
41686;BME280;27370;42.764;23.432;2023-02-17T05:13:12;96496.22;;;-3.22;100.00
41686;BME280;27370;42.764;23.432;2023-02-17T05:15:37;96489.28;;;-3.59;100.00
41686;BME280;27370;42.764;23.432;2023-02-17T05:18:03;96483.41;;;-3.56;100.00
41686;BME280;27370;42.764;23.432;2023-02-17T05:20:29;96471.81;;;-3.60;100.00
41686;BME280;27370;42.764;23.432;2023-02-17T05:22:55;96486.91;;;-3.33;100.00
41686;BME280;27370;42.764;23.432;2023-02-17T05:25:21;96483.97;;;-3.59;100.00
41686;BME280;27370;42.764;23.432;2023-02-17T05:27:46;96486.72;;;-3.50;100.00
41686;BME280;27370;42.764;23.432;2023-02-17T05:30:12;96493.56;;;-3.22;100.00
41686;BME280;27370;42.764;23.432;2023-02-17T05:32:37;96493.41;;;-3.39;100.00
41686;BME280;27370;42.764;23.432;2023-02-17T05:35:03;96518.56;;;-3.42;100.00
41686;BME280;27370;42.764;23.432;2023-02-17T05:37:29;96506.81;;;-3.22;100.00
41686;BME280;27370;42.764;23.432;2023-02-17T05:39:54;96507.59;;;-3.21;100.00
41686;BME280;27370;42.764;23.432;2023-02-17T05:42:20;96508.88;;;-3.05;100.00
41686;BME280;27370;42.764;23.432;2023-02-17T05:44:45;96515.31;;;-2.97;100.00
41686;BME280;27370;42.764;23.432;2023-02-17T05:47:11;96514.47;;;-3.06;100.00
41686;BME280;27370;42.764;23.432;2023-02-17T05:49:36;96514.75;;;-3.08;100.00
41686;BME280;27370;42.764;23.432;2023-02-17T05:52:02;96517.50;;;-3.13;100.00
41686;BME280;27370;42.764;23.432;2023-02-17T05:54:27;96535.28;;;-3.14;100.00
41686;BME280;27370;42.764;23.432;2023-02-17T05:56:53;96529.75;;;-3.03;100.00
41686;BME280;27370;42.764;23.432;2023-02-17T05:59:18;96528.31;;;-3.10;100.00
41686;BME280;27370;42.764;23.432;2023-02-17T06:01:44;96537.88;;;-2.86;100.00
41686;BME280;27370;42.764;23.432;2023-02-17T06:04:09;96535.53;;;-2.88;100.00
41686;BME280;27370;42.764;23.432;2023-02-17T06:06:35;96530.44;;;-2.84;100.00
41686;BME280;27370;42.764;23.432;2023-02-17T06:09:00;96539.72;;;-2.73;100.00
41686;BME280;27370;42.764;23.432;2023-02-17T06:11:26;96553.75;;;-2.72;100.00
41686;BME280;27370;42.764;23.432;2023-02-17T06:13:51;96541.53;;;-2.46;100.00
41686;BME280;27370;42.764;23.432;2023-02-17T06:16:17;96544.69;;;-2.58;100.00
41686;BME280;27370;42.764;23.432;2023-02-17T06:18:42;96547.50;;;-2.40;100.00
41686;BME280;27370;42.764;23.432;2023-02-17T06:21:08;96552.28;;;-2.06;100.00
41686;BME280;27370;42.764;23.432;2023-02-17T06:23:33;96551.09;;;-2.00;100.00
41686;BME280;27370;42.764;23.432;2023-02-17T06:25:59;96545.94;;;-1.74;100.00
41686;BME280;27370;42.764;23.432;2023-02-17T06:28:24;96550.56;;;-1.58;100.00
41686;BME280;27370;42.764;23.432;2023-02-17T06:30:50;96552.41;;;-1.36;100.00
41686;BME280;27370;42.764;23.432;2023-02-17T06:33:15;96547.44;;;-1.20;100.00
41686;BME280;27370;42.764;23.432;2023-02-17T06:35:41;96552.69;;;-0.98;100.00
41686;BME280;27370;42.764;23.432;2023-02-17T06:38:08;96553.19;;;-0.87;100.00
41686;BME280;27370;42.764;23.432;2023-02-17T06:40:34;96554.28;;;-0.79;100.00
41686;BME280;27370;42.764;23.432;2023-02-17T06:42:59;96559.50;;;-0.66;100.00
41686;BME280;27370;42.764;23.432;2023-02-17T06:45:25;96549.66;;;-0.48;100.00
41686;BME280;27370;42.764;23.432;2023-02-17T06:47:50;96545.44;;;-0.40;100.00
41686;BME280;27370;42.764;23.432;2023-02-17T06:50:16;96559.06;;;-0.16;100.00
41686;BME280;27370;42.764;23.432;2023-02-17T06:52:41;96546.22;;;-0.14;100.00
41686;BME280;27370;42.764;23.432;2023-02-17T06:55:07;96550.59;;;-0.01;100.00
41686;BME280;27370;42.764;23.432;2023-02-17T06:57:32;96562.97;;;0.13;100.00
41686;BME280;27370;42.764;23.432;2023-02-17T06:59:58;96553.84;;;0.31;100.00
41686;BME280;27370;42.764;23.432;2023-02-17T07:02:23;96556.78;;;0.55;100.00
41686;BME280;27370;42.764;23.432;2023-02-17T07:04:49;96556.88;;;0.68;100.00
41686;BME280;27370;42.764;23.432;2023-02-17T07:07:14;96562.53;;;1.04;100.00
41686;BME280;27370;42.764;23.432;2023-02-17T07:09:40;96550.97;;;1.00;100.00
41686;BME280;27370;42.764;23.432;2023-02-17T07:12:06;96559.47;;;1.23;100.00
41686;BME280;27370;42.764;23.432;2023-02-17T07:14:33;96567.00;;;1.50;100.00
41686;BME280;27370;42.764;23.432;2023-02-17T07:16:59;96571.13;;;1.69;100.00
41686;BME280;27370;42.764;23.432;2023-02-17T07:19:27;96554.53;;;1.63;100.00
41686;BME280;27370;42.764;23.432;2023-02-17T07:21:52;96558.63;;;1.81;100.00
41686;BME280;27370;42.764;23.432;2023-02-17T07:24:18;96569.88;;;2.08;100.00
41686;BME280;27370;42.764;23.432;2023-02-17T07:26:43;96569.59;;;2.22;100.00
41686;BME280;27370;42.764;23.432;2023-02-17T07:29:09;96551.75;;;2.13;100.00
41686;BME280;27370;42.764;23.432;2023-02-17T07:31:35;96565.53;;;2.36;100.00
41686;BME280;27370;42.764;23.432;2023-02-17T07:34:01;96570.94;;;2.61;100.00
41686;BME280;27370;42.764;23.432;2023-02-17T07:36:28;96566.28;;;2.58;100.00
41686;BME280;27370;42.764;23.432;2023-02-17T07:38:53;96565.16;;;2.71;100.00
41686;BME280;27370;42.764;23.432;2023-02-17T07:41:20;96562.31;;;2.88;100.00
41686;BME280;27370;42.764;23.432;2023-02-17T07:43:47;96561.78;;;3.07;100.00
41686;BME280;27370;42.764;23.432;2023-02-17T07:46:15;96565.78;;;3.25;100.00
41686;BME280;27370;42.764;23.432;2023-02-17T07:48:40;96566.34;;;3.43;100.00
41686;BME280;27370;42.764;23.432;2023-02-17T07:51:07;96582.94;;;3.61;100.00
41686;BME280;27370;42.764;23.432;2023-02-17T07:53:33;96574.09;;;3.85;100.00
41686;BME280;27370;42.764;23.432;2023-02-17T07:56:01;96568.09;;;4.04;100.00
41686;BME280;27370;42.764;23.432;2023-02-17T07:58:29;96568.97;;;4.20;100.00
41686;BME280;27370;42.764;23.432;2023-02-17T08:00:55;96561.09;;;4.27;100.00
41686;BME280;27370;42.764;23.432;2023-02-17T08:03:20;96559.59;;;4.42;100.00
41686;BME280;27370;42.764;23.432;2023-02-17T08:05:46;96561.47;;;4.85;100.00
41686;BME280;27370;42.764;23.432;2023-02-17T08:08:15;96561.47;;;4.69;100.00
41686;BME280;27370;42.764;23.432;2023-02-17T08:11:00;96576.63;;;4.93;100.00
41686;BME280;27370;42.764;23.432;2023-02-17T08:13:44;96562.44;;;4.92;100.00
41686;BME280;27370;42.764;23.432;2023-02-17T08:16:10;96563.72;;;5.14;100.00
41686;BME280;27370;42.764;23.432;2023-02-17T08:18:37;96561.03;;;5.30;100.00
41686;BME280;27370;42.764;23.432;2023-02-17T08:21:02;96563.88;;;5.53;100.00
41686;BME280;27370;42.764;23.432;2023-02-17T08:23:29;96572.50;;;5.62;100.00
41686;BME280;27370;42.764;23.432;2023-02-17T08:25:57;96567.94;;;5.82;100.00
41686;BME280;27370;42.764;23.432;2023-02-17T08:28:23;96556.16;;;5.87;100.00
41686;BME280;27370;42.764;23.432;2023-02-17T08:30:49;96560.78;;;6.05;100.00
41686;BME280;27370;42.764;23.432;2023-02-17T08:33:15;96565.03;;;6.45;100.00
41686;BME280;27370;42.764;23.432;2023-02-17T08:35:46;96563.66;;;6.74;100.00
41686;BME280;27370;42.764;23.432;2023-02-17T08:38:12;96565.22;;;6.98;100.00
41686;BME280;27370;42.764;23.432;2023-02-17T08:40:39;96569.53;;;7.02;100.00
41686;BME280;27370;42.764;23.432;2023-02-17T08:43:08;96553.66;;;7.20;100.00
41686;BME280;27370;42.764;23.432;2023-02-17T08:45:34;96564.34;;;7.66;100.00
41686;BME280;27370;42.764;23.432;2023-02-17T08:48:02;96554.69;;;7.91;100.00
41686;BME280;27370;42.764;23.432;2023-02-17T08:50:28;96551.38;;;8.02;100.00
41686;BME280;27370;42.764;23.432;2023-02-17T08:52:54;96562.75;;;8.18;100.00
41686;BME280;27370;42.764;23.432;2023-02-17T08:55:20;96558.19;;;8.55;100.00
41686;BME280;27370;42.764;23.432;2023-02-17T08:57:48;96551.63;;;8.53;100.00
41686;BME280;27370;42.764;23.432;2023-02-17T09:00:15;96549.91;;;8.75;100.00
41686;BME280;27370;42.764;23.432;2023-02-17T09:02:41;96552.56;;;9.08;98.78
41686;BME280;27370;42.764;23.432;2023-02-17T09:05:10;96554.25;;;9.27;99.25
41686;BME280;27370;42.764;23.432;2023-02-17T09:07:38;96539.47;;;9.14;99.56
41686;BME280;27370;42.764;23.432;2023-02-17T09:10:08;96531.19;;;9.40;96.40
41686;BME280;27370;42.764;23.432;2023-02-17T09:12:34;96536.38;;;9.70;96.81
41686;BME280;27370;42.764;23.432;2023-02-17T09:14:59;96541.53;;;9.90;93.09
41686;BME280;27370;42.764;23.432;2023-02-17T09:17:25;96527.31;;;10.03;83.57
41686;BME280;27370;42.764;23.432;2023-02-17T09:19:51;96528.66;;;10.52;78.10
41686;BME280;27370;42.764;23.432;2023-02-17T09:22:16;96526.34;;;10.43;78.50
41686;BME280;27370;42.764;23.432;2023-02-17T09:24:43;96534.88;;;10.60;75.73
41686;BME280;27370;42.764;23.432;2023-02-17T09:27:10;96531.31;;;10.34;77.62
41686;BME280;27370;42.764;23.432;2023-02-17T09:29:36;96536.81;;;10.56;75.92
41686;BME280;27370;42.764;23.432;2023-02-17T09:32:07;96532.97;;;10.67;69.67
41686;BME280;27370;42.764;23.432;2023-02-17T09:34:37;96531.06;;;11.03;70.12
41686;BME280;27370;42.764;23.432;2023-02-17T09:37:03;96528.00;;;11.37;64.08
41686;BME280;27370;42.764;23.432;2023-02-17T09:39:28;96503.97;;;11.57;60.34
41686;BME280;27370;42.764;23.432;2023-02-17T09:41:54;96503.09;;;11.99;61.96
41686;BME280;27370;42.764;23.432;2023-02-17T09:44:42;96496.78;;;12.27;58.65
41686;BME280;27370;42.764;23.432;2023-02-17T09:47:19;96492.38;;;12.54;51.25
41686;BME280;27370;42.764;23.432;2023-02-17T09:52:54;96489.63;;;13.17;51.98
41686;BME280;27370;42.764;23.432;2023-02-17T09:55:25;96470.09;;;13.29;49.29
41686;BME280;27370;42.764;23.432;2023-02-17T09:58:17;96484.88;;;13.28;48.89
41686;BME280;27370;42.764;23.432;2023-02-17T10:00:49;96470.34;;;13.45;47.30
41686;BME280;27370;42.764;23.432;2023-02-17T10:03:32;96476.19;;;13.44;47.73
41686;BME280;27370;42.764;23.432;2023-02-17T10:08:40;96464.88;;;13.49;47.12
41686;BME280;27370;42.764;23.432;2023-02-17T10:13:40;96473.66;;;13.64;44.40
41686;BME280;27370;42.764;23.432;2023-02-17T10:16:14;96457.47;;;13.87;44.38
41686;BME280;27370;42.764;23.432;2023-02-17T10:18:52;96441.94;;;13.84;43.78
41686;BME280;27370;42.764;23.432;2023-02-17T10:21:26;96454.28;;;13.92;42.35
41686;BME280;27370;42.764;23.432;2023-02-17T10:23:53;96460.50;;;13.93;42.67
41686;BME280;27370;42.764;23.432;2023-02-17T10:26:29;96458.41;;;14.07;41.94
41686;BME280;27370;42.764;23.432;2023-02-17T10:29:12;96453.09;;;13.93;40.53
41686;BME280;27370;42.764;23.432;2023-02-17T10:37:23;96432.91;;;14.21;40.79
41686;BME280;27370;42.764;23.432;2023-02-17T10:39:53;96422.28;;;14.03;40.29
41686;BME280;27370;42.764;23.432;2023-02-17T10:44:53;96426.84;;;14.10;40.75
41686;BME280;27370;42.764;23.432;2023-02-17T10:47:20;96417.97;;;14.02;40.34
41686;BME280;27370;42.764;23.432;2023-02-17T10:49:49;96425.25;;;14.13;39.94
41686;BME280;27370;42.764;23.432;2023-02-17T10:52:18;96401.94;;;14.38;41.16
41686;BME280;27370;42.764;23.432;2023-02-17T10:54:55;96401.59;;;14.63;37.52
41686;BME280;27370;42.764;23.432;2023-02-17T10:57:23;96411.16;;;14.48;38.31
41686;BME280;27370;42.764;23.432;2023-02-17T10:59:54;96401.50;;;14.13;38.66
41686;BME280;27370;42.764;23.432;2023-02-17T11:02:22;96398.78;;;14.13;38.77
41686;BME280;27370;42.764;23.432;2023-02-17T11:04:51;96399.69;;;14.33;40.48
41686;BME280;27370;42.764;23.432;2023-02-17T11:07:25;96387.28;;;14.29;38.85
41686;BME280;27370;42.764;23.432;2023-02-17T11:09:59;96389.34;;;14.48;39.73
41686;BME280;27370;42.764;23.432;2023-02-17T11:12:38;96388.56;;;14.51;37.81
41686;BME280;27370;42.764;23.432;2023-02-17T11:15:14;96388.78;;;14.60;37.62
41686;BME280;27370;42.764;23.432;2023-02-17T11:17:41;96364.97;;;14.64;36.73
41686;BME280;27370;42.764;23.432;2023-02-17T11:20:29;96373.22;;;14.61;36.06
41686;BME280;27370;42.764;23.432;2023-02-17T11:25:38;96380.16;;;14.89;35.20
41686;BME280;27370;42.764;23.432;2023-02-17T11:28:09;96380.91;;;14.89;34.99
41686;BME280;27370;42.764;23.432;2023-02-17T11:30:35;96378.38;;;14.79;35.57
41686;BME280;27370;42.764;23.432;2023-02-17T11:33:20;96373.28;;;14.57;34.74
41686;BME280;27370;42.764;23.432;2023-02-17T11:35:52;96368.34;;;14.49;35.17
41686;BME280;27370;42.764;23.432;2023-02-17T11:38:24;96362.19;;;14.41;34.61
41686;BME280;27370;42.764;23.432;2023-02-17T11:41:01;96357.28;;;14.32;34.12
41686;BME280;27370;42.764;23.432;2023-02-17T11:43:28;96357.97;;;14.36;34.88
41686;BME280;27370;42.764;23.432;2023-02-17T12:26:33;96327.34;;;14.56;32.05
41686;BME280;27370;42.764;23.432;2023-02-17T12:31:55;96307.91;;;14.54;31.66
41686;BME280;27370;42.764;23.432;2023-02-17T12:34:28;96305.44;;;14.36;31.51
41686;BME280;27370;42.764;23.432;2023-02-17T12:36:55;96307.03;;;14.33;31.97
41686;BME280;27370;42.764;23.432;2023-02-17T12:42:08;96313.31;;;14.57;31.35
41686;BME280;27370;42.764;23.432;2023-02-17T12:44:41;96311.06;;;14.52;32.05
41686;BME280;27370;42.764;23.432;2023-02-17T12:47:16;96315.69;;;14.55;31.92
41686;BME280;27370;42.764;23.432;2023-02-17T12:49:49;96310.88;;;14.63;32.61
41686;BME280;27370;42.764;23.432;2023-02-17T12:52:32;96290.94;;;14.43;32.50
41686;BME280;27370;42.764;23.432;2023-02-17T12:55:17;96309.53;;;14.51;32.83
41686;BME280;27370;42.764;23.432;2023-02-17T12:58:06;96300.31;;;14.65;33.52
41686;BME280;27370;42.764;23.432;2023-02-17T13:00:43;96301.91;;;14.86;33.61
41686;BME280;27370;42.764;23.432;2023-02-17T13:03:11;96298.09;;;15.03;33.21
41686;BME280;27370;42.764;23.432;2023-02-17T13:06:30;96291.44;;;15.04;33.45
41686;BME280;27370;42.764;23.432;2023-02-17T13:08:37;96301.22;;;14.82;33.73
41686;BME280;27370;42.764;23.432;2023-02-17T13:11:13;96303.94;;;14.82;34.29
41686;BME280;27370;42.764;23.432;2023-02-17T13:13:49;96283.31;;;14.57;33.35
41686;BME280;27370;42.764;23.432;2023-02-17T13:16:14;96292.25;;;14.81;32.92
41686;BME280;27370;42.764;23.432;2023-02-17T13:18:42;96291.84;;;14.83;33.35
41686;BME280;27370;42.764;23.432;2023-02-17T13:24:12;96298.97;;;14.77;33.66
41686;BME280;27370;42.764;23.432;2023-02-17T13:26:39;96289.47;;;14.85;34.37
41686;BME280;27370;42.764;23.432;2023-02-17T13:31:54;96288.78;;;15.00;33.78
41686;BME280;27370;42.764;23.432;2023-02-17T13:34:30;96283.53;;;15.10;33.84
41686;BME280;27370;42.764;23.432;2023-02-17T13:36:56;96293.56;;;14.96;33.73
41686;BME280;27370;42.764;23.432;2023-02-17T13:41:53;96279.47;;;14.55;35.21
41686;BME280;27370;42.764;23.432;2023-02-17T13:46:58;96290.00;;;14.29;35.71
41686;BME280;27370;42.764;23.432;2023-02-17T13:49:26;96279.50;;;14.01;35.52
41686;BME280;27370;42.764;23.432;2023-02-17T13:51:53;96280.03;;;13.65;36.52
41686;BME280;27370;42.764;23.432;2023-02-17T13:54:21;96274.28;;;13.60;37.88
41686;BME280;27370;42.764;23.432;2023-02-17T13:56:51;96291.44;;;13.53;36.63
41686;BME280;27370;42.764;23.432;2023-02-17T13:59:27;96291.88;;;13.52;36.91
41686;BME280;27370;42.764;23.432;2023-02-17T14:01:53;96292.63;;;13.52;37.19
41686;BME280;27370;42.764;23.432;2023-02-17T14:04:25;96293.03;;;13.51;34.96
41686;BME280;27370;42.764;23.432;2023-02-17T14:06:51;96293.75;;;13.55;36.19
41686;BME280;27370;42.764;23.432;2023-02-17T14:09:29;96281.81;;;13.48;36.69
41686;BME280;27370;42.764;23.432;2023-02-17T14:11:56;96292.78;;;13.41;34.73
41686;BME280;27370;42.764;23.432;2023-02-17T14:14:24;96286.88;;;13.46;35.29
41686;BME280;27370;42.764;23.432;2023-02-17T14:19:27;96289.97;;;13.14;35.50
41686;BME280;27370;42.764;23.432;2023-02-17T14:22:02;96291.25;;;13.03;37.81
41686;BME280;27370;42.764;23.432;2023-02-17T14:24:31;96295.91;;;13.02;37.49
41686;BME280;27370;42.764;23.432;2023-02-17T14:29:24;96284.50;;;12.80;39.51
41686;BME280;27370;42.764;23.432;2023-02-17T14:31:51;96285.22;;;12.84;40.66
41686;BME280;27370;42.764;23.432;2023-02-17T14:36:45;96283.75;;;12.76;40.20
41686;BME280;27370;42.764;23.432;2023-02-17T14:39:14;96271.03;;;12.70;40.30
41686;BME280;27370;42.764;23.432;2023-02-17T14:41:40;96277.63;;;12.69;41.71
41686;BME280;27370;42.764;23.432;2023-02-17T14:44:06;96282.66;;;12.70;40.66
41686;BME280;27370;42.764;23.432;2023-02-17T14:46:32;96277.69;;;12.62;39.96